Terminal Aerodrome Forecast
Issued by NWS

Home | Current Version | Previous Version | Text Only | Print | Product List | Glossary On
Versions: 1 2 3 4 5 6 7 8 9 10 11 12 13 14 15 16 17 18 19 20 21 22 23 24 25 26 27 28
000
FTUS41 KBOX 061126
TAFHYA
TAF
KHYA 061126Z 0612/0712 03005KT P6SM BKN045 BKN120
     FM061700 06007KT P6SM SCT150
     FM061900 11006KT P6SM FEW150
     FM062100 18007KT P6SM FEW150
     FM070200 24005KT P6SM SKC=

USA.gov is the U.S. government's official web portal to all federal, state and local government web resources and services.